createdAt,value
2018-12-21T00:00:41.571Z,-2.10
2018-12-21T00:03:10.265Z,-2.10
2018-12-21T00:05:39.888Z,-2.10
2018-12-21T00:08:08.576Z,-2.10
2018-12-21T00:10:38.132Z,-2.10
2018-12-21T00:13:06.816Z,-2.10
2018-12-21T00:15:35.686Z,-2.00
2018-12-21T00:18:04.608Z,-2.10
2018-12-21T00:20:33.182Z,-2.10
2018-12-21T00:23:01.975Z,-2.10
2018-12-21T00:25:30.528Z,-2.00
2018-12-21T00:27:59.163Z,-2.10
2018-12-21T00:30:26.950Z,-2.00
2018-12-21T00:33:00.991Z,-1.90
2018-12-21T00:35:34.952Z,-2.00
2018-12-21T00:38:09.150Z,-2.00
2018-12-21T00:40:43.025Z,-2.10
2018-12-21T00:43:18.690Z,-2.00
2018-12-21T00:45:50.439Z,-1.90
2018-12-21T00:48:18.964Z,-1.90
2018-12-21T00:50:48.293Z,-2.00
2018-12-21T00:53:17.053Z,-2.00
2018-12-21T00:55:46.411Z,-2.10
2018-12-21T00:58:15.827Z,-2.10
2018-12-21T01:00:44.701Z,-2.00
2018-12-21T01:03:13.836Z,-1.90
2018-12-21T01:05:42.523Z,-1.90
2018-12-21T01:08:11.363Z,-2.00
2018-12-21T01:10:40.631Z,-2.00
2018-12-21T01:13:11.878Z,-1.80
2018-12-21T01:15:40.923Z,-1.80
2018-12-21T01:18:10.291Z,-1.80
2018-12-21T01:20:38.858Z,-1.70
2018-12-21T01:23:07.363Z,-1.80
2018-12-21T01:25:35.916Z,-1.80
2018-12-21T01:28:05.285Z,-1.90
2018-12-21T01:30:33.851Z,-1.80
2018-12-21T01:33:02.719Z,-1.70
2018-12-21T01:35:31.828Z,-1.80
2018-12-21T01:38:01.043Z,-1.80
2018-12-21T01:40:29.979Z,-1.80
2018-12-21T01:42:58.635Z,-1.70
2018-12-21T01:45:28.010Z,-1.70
2018-12-21T01:47:57.287Z,-1.70
2018-12-21T01:50:25.904Z,-1.70
2018-12-21T01:52:55.631Z,-1.80
2018-12-21T01:55:24.580Z,-1.80
2018-12-21T01:57:53.234Z,-1.70
2018-12-21T02:00:22.076Z,-1.70
2018-12-21T02:02:51.326Z,-1.70
2018-12-21T02:05:19.936Z,-1.60
2018-12-21T02:07:48.610Z,-1.70
2018-12-21T02:10:17.590Z,-1.70
2018-12-21T02:12:47.373Z,-1.70
2018-12-21T02:15:16.193Z,-1.60
2018-12-21T02:17:44.885Z,-1.60
2018-12-21T02:20:13.568Z,-1.60
2018-12-21T02:22:42.294Z,-1.60
2018-12-21T02:25:11.002Z,-1.60
2018-12-21T02:27:39.593Z,-1.60
2018-12-21T02:30:08.914Z,-1.60
2018-12-21T02:32:38.030Z,-1.60
2018-12-21T02:35:07.342Z,-1.60
2018-12-21T02:37:35.977Z,-1.60
2018-12-21T02:40:05.503Z,-1.60
2018-12-21T02:42:34.212Z,-1.50
2018-12-21T02:45:04.331Z,-1.50
2018-12-21T02:47:33.593Z,-1.40
2018-12-21T02:50:02.207Z,-1.40
2018-12-21T02:52:32.027Z,-1.40
2018-12-21T02:55:00.811Z,-1.40
2018-12-21T02:57:29.424Z,-1.40
2018-12-21T02:59:58.156Z,-1.40
2018-12-21T03:02:26.788Z,-1.40
2018-12-21T03:04:55.559Z,-1.40
2018-12-21T03:07:24.229Z,-1.40
2018-12-21T03:09:53.634Z,-1.40
2018-12-21T03:12:22.180Z,-1.30
2018-12-21T03:14:50.954Z,-1.40
2018-12-21T03:17:20.480Z,-1.20
2018-12-21T03:19:49.034Z,-1.30
2018-12-21T03:22:17.608Z,-1.30
2018-12-21T03:24:46.459Z,-1.20
2018-12-21T03:27:15.249Z,-1.30
2018-12-21T03:29:43.793Z,-1.20
2018-12-21T03:32:12.468Z,-1.20
2018-12-21T03:34:41.095Z,-1.10
2018-12-21T03:37:10.095Z,-1.20
2018-12-21T03:39:39.592Z,-1.10
2018-12-21T03:42:08.376Z,-1.20
2018-12-21T03:44:37.286Z,-1.10
2018-12-21T03:47:06.551Z,-1.10
2018-12-21T03:49:35.201Z,-1.00
2018-12-21T03:52:04.450Z,-1.00
2018-12-21T03:54:33.869Z,-1.10
2018-12-21T03:57:02.843Z,-1.00
2018-12-21T03:59:31.486Z,-1.00
2018-12-21T04:02:00.478Z,-1.00
2018-12-21T04:04:29.189Z,-1.10
2018-12-21T04:06:57.809Z,-1.00
2018-12-21T04:09:26.494Z,-0.90
2018-12-21T04:11:55.527Z,-1.00
2018-12-21T04:14:24.284Z,-1.00
2018-12-21T04:16:53.717Z,-1.00
2018-12-21T04:19:22.397Z,-1.00
2018-12-21T04:21:51.229Z,-0.80
2018-12-21T04:24:20.092Z,-0.80
2018-12-21T04:26:48.663Z,-0.80
2018-12-21T04:29:17.225Z,-0.90
2018-12-21T04:31:45.804Z,-0.90
2018-12-21T04:34:14.420Z,-0.80
2018-12-21T04:36:43.094Z,-0.80
2018-12-21T04:39:12.123Z,-0.80
2018-12-21T04:41:40.701Z,-0.80
2018-12-21T04:44:09.343Z,-0.60
2018-12-21T04:46:38.184Z,-0.70
2018-12-21T04:49:07.889Z,-0.70
2018-12-21T04:51:36.989Z,-0.70
2018-12-21T04:54:06.396Z,-0.70
2018-12-21T04:56:35.602Z,-0.60
2018-12-21T04:59:04.995Z,-0.50
2018-12-21T05:01:34.517Z,-0.50
2018-12-21T05:04:03.341Z,-0.50
2018-12-21T05:06:31.952Z,-0.40
2018-12-21T05:09:01.559Z,-0.40
2018-12-21T05:11:30.666Z,-0.40
2018-12-21T05:14:00.232Z,-0.30
2018-12-21T05:16:28.771Z,-0.40
2018-12-21T05:18:57.380Z,-0.40
2018-12-21T05:21:26.012Z,-0.40
2018-12-21T05:23:54.772Z,-0.30
2018-12-21T05:26:23.501Z,-0.20
2018-12-21T05:28:52.643Z,-0.30
2018-12-21T05:31:28.306Z,-0.20
2018-12-21T05:33:51.884Z,-0.20
2018-12-21T05:36:21.140Z,-0.20
2018-12-21T05:38:50.388Z,-0.20
2018-12-21T05:41:19.315Z,-0.20
2018-12-21T05:43:48.694Z,-0.20
2018-12-21T05:46:17.882Z,-0.20
2018-12-21T05:48:48.142Z,-0.10
2018-12-21T05:51:17.607Z,0.00
2018-12-21T05:53:46.211Z,0.00
2018-12-21T05:56:14.885Z,0.00
2018-12-21T05:58:44.057Z,0.00
2018-12-21T06:01:12.838Z,0.10
2018-12-21T06:03:41.436Z,0.10
2018-12-21T06:06:10.825Z,0.10
2018-12-21T06:08:39.453Z,0.10
2018-12-21T06:11:08.501Z,0.20
2018-12-21T06:13:37.066Z,0.10
2018-12-21T06:16:05.859Z,0.10
2018-12-21T06:18:34.397Z,0.20
2018-12-21T06:21:04.099Z,0.20
2018-12-21T06:23:33.391Z,0.10
2018-12-21T06:26:02.189Z,0.20
2018-12-21T06:28:30.818Z,0.30
2018-12-21T06:30:59.740Z,0.30
2018-12-21T06:33:28.368Z,0.30
2018-12-21T06:35:57.581Z,0.20
2018-12-21T06:38:26.257Z,0.40
2018-12-21T06:40:54.904Z,0.40
2018-12-21T06:43:23.506Z,0.30
2018-12-21T06:45:52.251Z,0.40
2018-12-21T06:48:21.225Z,0.30
2018-12-21T06:50:49.886Z,0.40
2018-12-21T06:53:19.102Z,0.40
2018-12-21T06:55:48.554Z,0.40
2018-12-21T06:58:17.130Z,0.40
2018-12-21T07:00:45.696Z,0.50
2018-12-21T07:03:17.167Z,0.50
2018-12-21T07:05:47.419Z,0.50
2018-12-21T07:08:16.259Z,0.40
2018-12-21T07:10:45.719Z,0.40
2018-12-21T07:13:14.884Z,0.40
2018-12-21T07:15:43.485Z,0.40
2018-12-21T07:18:12.185Z,0.40
2018-12-21T07:20:40.965Z,0.50
2018-12-21T07:23:10.554Z,0.50
2018-12-21T07:25:40.020Z,0.50
2018-12-21T07:28:08.672Z,0.50
2018-12-21T07:30:37.534Z,0.50
2018-12-21T07:33:06.702Z,0.60
2018-12-21T07:35:35.844Z,0.60
2018-12-21T07:38:04.649Z,0.60
2018-12-21T07:40:33.239Z,0.60
2018-12-21T07:43:02.674Z,0.70
2018-12-21T07:45:31.398Z,0.70
2018-12-21T07:47:59.991Z,0.80
2018-12-21T07:50:28.788Z,0.80
2018-12-21T07:52:57.473Z,0.90
2018-12-21T07:55:26.137Z,0.90
2018-12-21T07:57:54.840Z,0.80
2018-12-21T08:00:23.779Z,0.90
2018-12-21T08:02:52.523Z,0.90
2018-12-21T08:05:21.994Z,0.90
2018-12-21T08:07:50.747Z,0.90
2018-12-21T08:10:21.000Z,0.90
2018-12-21T08:12:50.247Z,0.90
2018-12-21T08:15:22.053Z,1.00
2018-12-21T08:17:50.764Z,1.00
2018-12-21T08:20:25.970Z,1.10
2018-12-21T08:22:54.524Z,1.20
2018-12-21T08:25:23.354Z,1.20
2018-12-21T08:27:52.608Z,1.20
2018-12-21T08:30:21.263Z,1.20
2018-12-21T08:32:49.876Z,1.20
2018-12-21T08:35:18.494Z,1.30
2018-12-21T08:37:47.282Z,1.30
2018-12-21T08:40:16.933Z,1.40
2018-12-21T08:42:47.182Z,1.30
2018-12-21T08:45:15.908Z,1.40
2018-12-21T08:47:45.335Z,1.30
2018-12-21T08:50:13.996Z,1.30
2018-12-21T08:52:42.675Z,1.30
2018-12-21T08:55:12.124Z,1.30
2018-12-21T08:57:41.088Z,1.40
2018-12-21T09:00:12.493Z,1.50
2018-12-21T09:02:41.100Z,1.50
2018-12-21T09:05:10.267Z,1.60
2018-12-21T09:07:38.959Z,1.50
2018-12-21T09:10:10.142Z,1.60
2018-12-21T09:12:39.578Z,1.60
2018-12-21T09:15:12.136Z,1.60
2018-12-21T09:17:41.323Z,1.70
2018-12-21T09:20:11.071Z,1.60
2018-12-21T09:22:39.876Z,1.70
2018-12-21T09:25:08.720Z,1.80
2018-12-21T09:27:37.505Z,1.80
2018-12-21T09:30:11.340Z,1.80
2018-12-21T09:32:39.882Z,1.90
2018-12-21T09:35:09.252Z,1.80
2018-12-21T09:37:38.442Z,1.80
2018-12-21T09:40:10.622Z,1.90
2018-12-21T09:42:39.720Z,1.90
2018-12-21T09:45:08.847Z,2.00
2018-12-21T09:47:38.490Z,2.00
2018-12-21T09:50:09.531Z,2.00
2018-12-21T09:52:38.094Z,2.00
2018-12-21T09:55:07.935Z,2.10
2018-12-21T09:57:37.350Z,2.30
2018-12-21T10:00:10.171Z,2.20
2018-12-21T10:02:39.380Z,2.30
2018-12-21T10:05:11.482Z,2.40
2018-12-21T10:07:40.084Z,2.40
2018-12-21T10:10:08.841Z,2.50
2018-12-21T10:12:38.243Z,2.60
2018-12-21T10:15:08.767Z,2.60
2018-12-21T10:17:38.579Z,2.80
2018-12-21T10:20:09.115Z,2.80
2018-12-21T10:22:38.638Z,2.90
2018-12-21T10:25:08.392Z,3.10
2018-12-21T10:27:37.422Z,3.10
2018-12-21T10:30:08.577Z,3.30
2018-12-21T10:32:37.684Z,3.40
2018-12-21T10:35:07.096Z,3.60
2018-12-21T10:37:36.499Z,3.60
2018-12-21T10:40:05.813Z,3.60
2018-12-21T10:42:34.556Z,3.60
2018-12-21T10:45:03.379Z,4.10
2018-12-21T10:47:32.938Z,4.30
2018-12-21T10:50:02.328Z,4.80
2018-12-21T10:52:32.820Z,5.60
2018-12-21T10:55:01.698Z,5.40
2018-12-21T10:57:30.719Z,5.30
2018-12-21T10:59:59.594Z,5.00
2018-12-21T11:02:28.570Z,4.90
2018-12-21T11:04:57.356Z,4.50
2018-12-21T11:07:26.211Z,4.00
2018-12-21T11:09:55.231Z,3.80
2018-12-21T11:12:27.621Z,3.70
2018-12-21T11:14:56.625Z,3.60
2018-12-21T11:17:25.334Z,3.50
2018-12-21T11:19:54.378Z,3.50
2018-12-21T11:22:23.186Z,3.40
2018-12-21T11:24:52.091Z,3.50
2018-12-21T11:27:20.695Z,3.50
2018-12-21T11:29:49.689Z,3.60
2018-12-21T11:32:19.071Z,3.60
2018-12-21T11:34:47.716Z,3.60
2018-12-21T11:37:16.446Z,3.50
2018-12-21T11:39:45.136Z,3.30
2018-12-21T11:42:13.993Z,3.20
2018-12-21T11:44:43.213Z,3.20
2018-12-21T11:47:12.140Z,3.20
2018-12-21T11:49:40.855Z,3.20
2018-12-21T11:52:09.421Z,3.20
2018-12-21T11:54:44.164Z,3.20
2018-12-21T11:57:09.509Z,3.20
2018-12-21T11:59:44.851Z,3.20
2018-12-21T12:02:09.029Z,3.20
2018-12-21T12:04:38.049Z,3.20
2018-12-21T12:07:07.349Z,3.20
2018-12-21T12:09:36.459Z,3.10
2018-12-21T12:12:05.404Z,3.00
2018-12-21T12:14:34.241Z,3.00
2018-12-21T12:17:03.278Z,3.10
2018-12-21T12:19:31.990Z,3.00
2018-12-21T12:22:00.760Z,2.90
2018-12-21T12:24:30.057Z,2.90
2018-12-21T12:26:58.648Z,2.90
2018-12-21T12:29:27.335Z,3.00
2018-12-21T12:31:55.946Z,2.90
2018-12-21T12:34:25.684Z,3.00
2018-12-21T12:36:55.142Z,2.90
2018-12-21T12:39:24.239Z,2.90
2018-12-21T12:41:53.320Z,2.90
2018-12-21T12:44:22.157Z,2.80
2018-12-21T12:46:50.851Z,2.80
2018-12-21T12:49:20.143Z,2.70
2018-12-21T12:51:48.820Z,2.80
2018-12-21T12:54:17.600Z,2.70
2018-12-21T12:56:46.430Z,2.60
2018-12-21T12:59:15.107Z,2.80
2018-12-21T13:01:44.560Z,2.70
2018-12-21T13:04:13.197Z,2.60
2018-12-21T13:06:41.770Z,2.60
2018-12-21T13:09:10.465Z,2.50
2018-12-21T13:11:39.405Z,2.50
2018-12-21T13:14:08.306Z,2.40
2018-12-21T13:16:37.644Z,2.40
2018-12-21T13:19:07.166Z,2.40
2018-12-21T13:21:35.881Z,2.40
2018-12-21T13:24:04.531Z,2.30
2018-12-21T13:26:33.076Z,2.40
2018-12-21T13:29:01.702Z,2.40
2018-12-21T13:31:31.169Z,2.40
2018-12-21T13:34:00.214Z,2.40
2018-12-21T13:36:29.126Z,2.30
2018-12-21T13:38:57.800Z,2.30
2018-12-21T13:41:26.937Z,2.30
2018-12-21T13:43:55.790Z,2.20
2018-12-21T13:46:25.290Z,2.20
2018-12-21T13:48:53.889Z,2.20
2018-12-21T13:51:22.475Z,2.30
2018-12-21T13:53:51.184Z,2.20
2018-12-21T13:56:19.943Z,2.20
2018-12-21T13:58:48.532Z,2.10
2018-12-21T14:01:17.078Z,2.10
2018-12-21T14:03:46.002Z,2.10
2018-12-21T14:06:15.454Z,2.00
2018-12-21T14:08:44.067Z,2.00
2018-12-21T14:11:12.770Z,1.90
2018-12-21T14:13:41.721Z,1.90
2018-12-21T14:16:10.436Z,2.00
2018-12-21T14:18:38.979Z,2.00
2018-12-21T14:21:07.618Z,1.80
2018-12-21T14:23:37.166Z,1.80
2018-12-21T14:26:05.999Z,1.80
2018-12-21T14:28:35.461Z,1.70
2018-12-21T14:31:04.148Z,1.70
2018-12-21T14:33:32.900Z,1.70
2018-12-21T14:36:02.086Z,1.70
2018-12-21T14:38:31.184Z,1.70
2018-12-21T14:40:59.796Z,1.80
2018-12-21T14:43:28.748Z,1.70
2018-12-21T14:45:57.488Z,1.80
2018-12-21T14:48:26.480Z,1.70
2018-12-21T14:50:55.381Z,1.80
2018-12-21T14:53:24.093Z,1.70
2018-12-21T14:55:52.832Z,1.70
2018-12-21T14:58:21.942Z,1.70
2018-12-21T15:00:50.638Z,1.70
2018-12-21T15:03:19.384Z,1.70
2018-12-21T15:05:48.831Z,1.70
2018-12-21T15:08:17.542Z,1.60
2018-12-21T15:10:46.248Z,1.60
2018-12-21T15:13:15.459Z,1.70
2018-12-21T15:15:44.073Z,1.60
2018-12-21T15:18:12.775Z,1.70
2018-12-21T15:20:41.750Z,1.70
2018-12-21T15:23:10.407Z,1.70
2018-12-21T15:25:46.064Z,1.70
2018-12-21T15:28:11.174Z,1.90
2018-12-21T15:30:39.948Z,1.80
2018-12-21T15:33:08.687Z,1.90
2018-12-21T15:35:37.345Z,1.90
2018-12-21T15:38:06.386Z,1.90
2018-12-21T15:40:35.255Z,1.90
2018-12-21T15:43:04.126Z,1.90
2018-12-21T15:45:33.315Z,1.90
2018-12-21T15:48:01.999Z,1.90
2018-12-21T15:50:30.990Z,2.00
2018-12-21T15:53:00.036Z,1.90
2018-12-21T15:55:28.924Z,1.80
2018-12-21T15:57:58.470Z,1.80
2018-12-21T16:00:27.928Z,1.70
2018-12-21T16:02:57.944Z,1.80
2018-12-21T16:05:26.726Z,1.70
2018-12-21T16:07:55.421Z,1.70
2018-12-21T16:10:24.170Z,1.80
2018-12-21T16:12:52.842Z,1.70
2018-12-21T16:15:22.201Z,1.70
2018-12-21T16:17:50.882Z,1.80
2018-12-21T16:20:19.624Z,1.80
2018-12-21T16:22:48.266Z,1.70
2018-12-21T16:25:16.942Z,1.70
2018-12-21T16:27:45.579Z,1.70
2018-12-21T16:30:14.504Z,1.80
2018-12-21T16:32:43.673Z,1.70
2018-12-21T16:35:12.657Z,1.90
2018-12-21T16:37:42.256Z,1.80
2018-12-21T16:40:11.742Z,1.80
2018-12-21T16:42:40.463Z,1.80
2018-12-21T16:45:10.818Z,1.90
2018-12-21T16:47:40.178Z,1.90
2018-12-21T16:50:13.256Z,2.00
2018-12-21T16:52:41.893Z,1.90
2018-12-21T16:55:10.663Z,1.80
2018-12-21T16:57:39.370Z,1.90
2018-12-21T17:00:11.907Z,2.00
2018-12-21T17:02:40.478Z,2.00
2018-12-21T17:05:10.229Z,1.90
2018-12-21T17:07:39.582Z,1.90
2018-12-21T17:10:13.653Z,2.00
2018-12-21T17:12:42.252Z,2.00
2018-12-21T17:15:11.111Z,2.00
2018-12-21T17:17:40.113Z,1.90
2018-12-21T17:20:09.825Z,2.00
2018-12-21T17:22:38.493Z,2.00
2018-12-21T17:25:09.898Z,2.00
2018-12-21T17:27:38.895Z,2.00
2018-12-21T17:30:09.775Z,1.90
2018-12-21T17:32:38.467Z,1.90
2018-12-21T17:35:08.753Z,1.90
2018-12-21T17:37:37.975Z,2.00
2018-12-21T17:40:09.151Z,1.90
2018-12-21T17:42:38.459Z,1.90
2018-12-21T17:45:26.105Z,1.90
2018-12-21T17:47:55.573Z,2.00
2018-12-21T17:50:24.116Z,1.90
2018-12-21T17:52:52.908Z,1.90
2018-12-21T17:55:22.155Z,2.00
2018-12-21T17:57:51.485Z,2.00
2018-12-21T18:00:21.172Z,2.00
2018-12-21T18:02:52.595Z,2.00
2018-12-21T18:05:22.419Z,2.00
2018-12-21T18:07:51.105Z,2.00
2018-12-21T18:10:20.011Z,2.00
2018-12-21T18:12:48.571Z,2.00
2018-12-21T18:15:17.327Z,2.00
2018-12-21T18:17:45.969Z,1.90
2018-12-21T18:20:15.579Z,1.90
2018-12-21T18:22:44.159Z,1.90
2018-12-21T18:25:25.443Z,1.90
2018-12-21T18:27:56.207Z,1.90
2018-12-21T18:30:38.391Z,1.80
2018-12-21T18:33:10.838Z,1.80
2018-12-21T18:35:39.451Z,1.80
2018-12-21T18:38:12.221Z,1.80
2018-12-21T18:40:40.785Z,1.90
2018-12-21T18:43:09.349Z,1.80
2018-12-21T18:45:38.699Z,1.70
2018-12-21T18:48:07.297Z,1.70
2018-12-21T18:50:35.884Z,1.70
2018-12-21T18:53:04.569Z,1.70
2018-12-21T18:55:33.764Z,1.60
2018-12-21T18:58:02.809Z,1.70
2018-12-21T19:00:31.364Z,1.70
2018-12-21T19:03:00.012Z,1.70
2018-12-21T19:05:28.807Z,1.70
2018-12-21T19:07:57.409Z,1.70
2018-12-21T19:10:26.078Z,1.60
2018-12-21T19:12:54.826Z,1.70
2018-12-21T19:15:23.429Z,1.60
2018-12-21T19:17:52.100Z,1.60
2018-12-21T19:20:20.960Z,1.60
2018-12-21T19:22:49.550Z,1.60
2018-12-21T19:25:18.158Z,1.70
2018-12-21T19:27:47.362Z,1.60
2018-12-21T19:30:16.141Z,1.60
2018-12-21T19:32:44.680Z,1.60
2018-12-21T19:35:15.457Z,1.60
2018-12-21T19:37:44.097Z,1.60
2018-12-21T19:40:14.104Z,1.50
2018-12-21T19:42:43.040Z,1.50
2018-12-21T19:45:13.704Z,1.50
2018-12-21T19:47:42.950Z,1.50
2018-12-21T19:50:12.864Z,1.50
2018-12-21T19:52:41.668Z,1.40
2018-12-21T19:55:26.203Z,1.40
2018-12-21T19:57:54.884Z,1.40
2018-12-21T20:00:23.468Z,1.40
2018-12-21T20:02:52.114Z,1.40
2018-12-21T20:05:20.798Z,1.40
2018-12-21T20:07:49.372Z,1.40
2018-12-21T20:10:17.910Z,1.40
2018-12-21T20:12:46.442Z,1.40
2018-12-21T20:15:14.996Z,1.40
2018-12-21T20:17:43.620Z,1.30
2018-12-21T20:20:12.579Z,1.30
2018-12-21T20:22:41.162Z,1.30
2018-12-21T20:25:10.801Z,1.40
2018-12-21T20:27:40.489Z,1.40
2018-12-21T20:30:12.068Z,1.40
2018-12-21T20:32:40.619Z,1.40
2018-12-21T20:35:09.646Z,1.40
2018-12-21T20:37:38.572Z,1.40
2018-12-21T20:40:08.709Z,1.30
2018-12-21T20:42:37.302Z,1.30
2018-12-21T20:45:06.835Z,1.40
2018-12-21T20:47:35.987Z,1.50
2018-12-21T20:50:06.103Z,1.40
2018-12-21T20:52:35.636Z,1.40
2018-12-21T20:55:05.121Z,1.30
2018-12-21T20:57:34.467Z,1.30
2018-12-21T21:00:03.254Z,1.40
2018-12-21T21:02:31.807Z,1.30
2018-12-21T21:05:01.352Z,1.40
2018-12-21T21:07:30.065Z,1.40
2018-12-21T21:09:58.669Z,1.40
2018-12-21T21:12:27.227Z,1.40
2018-12-21T21:14:55.813Z,1.40
2018-12-21T21:17:24.509Z,1.40
2018-12-21T21:19:53.073Z,1.40
2018-12-21T21:22:21.695Z,1.40
2018-12-21T21:24:50.300Z,1.40
2018-12-21T21:27:18.883Z,1.40
2018-12-21T21:29:47.467Z,1.30
2018-12-21T21:32:16.015Z,1.30
2018-12-21T21:34:44.505Z,1.40
2018-12-21T21:37:13.051Z,1.40
2018-12-21T21:39:41.633Z,1.50
2018-12-21T21:42:11.973Z,1.50
2018-12-21T21:44:40.893Z,1.50
2018-12-21T21:47:09.422Z,1.50
2018-12-21T21:49:37.939Z,1.40
2018-12-21T21:52:06.502Z,1.40
2018-12-21T21:54:35.313Z,1.40
2018-12-21T21:57:03.869Z,1.40
2018-12-21T21:59:32.503Z,1.40
2018-12-21T22:02:01.139Z,1.50
2018-12-21T22:04:29.655Z,1.40
2018-12-21T22:06:58.715Z,1.40
2018-12-21T22:09:27.343Z,1.40
2018-12-21T22:11:55.901Z,1.50
2018-12-21T22:14:24.498Z,1.40
2018-12-21T22:16:53.065Z,1.40
2018-12-21T22:19:21.754Z,1.40
2018-12-21T22:21:50.339Z,1.40
2018-12-21T22:24:18.986Z,1.40
2018-12-21T22:26:47.482Z,1.40
2018-12-21T22:29:16.307Z,1.40
2018-12-21T22:31:44.976Z,1.40
2018-12-21T22:34:13.509Z,1.40
2018-12-21T22:36:42.227Z,1.50
2018-12-21T22:39:10.762Z,1.50
2018-12-21T22:41:39.412Z,1.50
2018-12-21T22:44:09.327Z,1.50
2018-12-21T22:46:37.876Z,1.40
2018-12-21T22:49:06.384Z,1.30
2018-12-21T22:51:34.922Z,1.20
2018-12-21T22:54:03.560Z,1.20
2018-12-21T22:56:32.119Z,1.20
2018-12-21T22:59:00.656Z,1.10
2018-12-21T23:01:30.204Z,1.10
2018-12-21T23:03:58.758Z,1.10
2018-12-21T23:06:27.320Z,1.10
2018-12-21T23:08:56.254Z,1.10
2018-12-21T23:11:24.861Z,1.00
2018-12-21T23:13:53.602Z,1.00
2018-12-21T23:16:22.260Z,1.00
2018-12-21T23:18:50.913Z,0.90
2018-12-21T23:21:19.513Z,1.00
2018-12-21T23:23:49.858Z,1.00
2018-12-21T23:26:18.395Z,0.90
2018-12-21T23:28:47.343Z,0.80
2018-12-21T23:31:15.956Z,0.80
2018-12-21T23:33:44.462Z,0.80
2018-12-21T23:36:13.027Z,0.80
2018-12-21T23:38:41.623Z,0.90
2018-12-21T23:41:10.454Z,1.00
2018-12-21T23:43:43.308Z,1.00
2018-12-21T23:46:10.088Z,1.00
2018-12-21T23:48:38.692Z,1.00
2018-12-21T23:51:07.250Z,1.00
2018-12-21T23:53:36.015Z,1.00
2018-12-21T23:56:11.902Z,1.00
2018-12-21T23:58:35.407Z,1.00
